Guhu Airstrip


Codes: AYGH/
Name: Guhu Airstrip
City: Guhu
Country: Papua New Guinea
Elevation: 3 ft.

Photos at Guhu Airstrip


   Photos courtesy of SpottingLog. You can add your own sightings and photos by signing up for a free trial today.



No photos found.

Weather at Guhu Airstrip


Time (UTC)DescriptionTempratureWindCloud coverageVisibilityPressureHumidity
15-Apr-2024 18:00Light Rain21°C2 mph, S38%10000m1015hPa92%
15-Apr-2024 21:00Light Rain21°C2 mph, S46%10000m1015hPa89%
16-Apr-2024 00:00Light Rain25°C4 mph, N40%10000m1015hPa80%
16-Apr-2024 03:00Moderate Rain23°C2 mph, N88%0m1012hPa92%
16-Apr-2024 06:00Moderate Rain22°C2 mph, N92%798m1011hPa96%
16-Apr-2024 09:00Heavy Intensity Rain21°C4 mph, N100%0m1012hPa97%
16-Apr-2024 12:00Moderate Rain21°C2 mph, S100%10000m1015hPa91%
16-Apr-2024 15:00Light Rain21°C2 mph, SW100%10000m1013hPa90%
16-Apr-2024 18:00Light Rain20°C0 mph, SE100%10000m1013hPa92%
16-Apr-2024 21:00Light Rain21°C0 mph, E100%9472m1014hPa92%
17-Apr-2024 00:00Light Rain22°C2 mph, N100%0m1014hPa95%
17-Apr-2024 03:00Light Rain22°C2 mph, N99%0m1012hPa96%
17-Apr-2024 06:00Light Rain22°C4 mph, N97%3261m1010hPa95%
17-Apr-2024 09:00Moderate Rain21°C2 mph, E100%10000m1012hPa91%
17-Apr-2024 12:00Light Rain20°C0 mph, SE100%8881m1014hPa93%
17-Apr-2024 15:00Moderate Rain20°C0 mph, SE100%2827m1012hPa94%
17-Apr-2024 18:00Moderate Rain20°C2 mph, NE100%5050m1012hPa91%
17-Apr-2024 21:00Light Rain20°C0 mph, NE100%10000m1014hPa88%
18-Apr-2024 00:00Overcast Clouds24°C4 mph, N98%10000m1014hPa78%
18-Apr-2024 03:00Light Rain23°C4 mph, N100%2042m1012hPa88%
18-Apr-2024 06:00Light Rain21°C2 mph, N99%3083m1011hPa93%
18-Apr-2024 09:00Light Rain20°C2 mph, SE100%10000m1013hPa91%
18-Apr-2024 12:00Overcast Clouds20°C2 mph, SE100%10000m1015hPa88%
18-Apr-2024 15:00Overcast Clouds19°C2 mph, S100%10000m1014hPa88%
18-Apr-2024 18:00Overcast Clouds19°C2 mph, S100%10000m1013hPa89%
18-Apr-2024 21:00Overcast Clouds20°C2 mph, S97%10000m1015hPa88%
19-Apr-2024 00:00Light Rain24°C7 mph, N75%10000m1014hPa79%
19-Apr-2024 03:00Light Rain23°C7 mph, N88%10000m1012hPa82%
19-Apr-2024 06:00Light Rain22°C4 mph, N83%10000m1011hPa86%
19-Apr-2024 09:00Light Rain21°C0 mph, NW74%10000m1014hPa94%
19-Apr-2024 12:00Broken Clouds20°C2 mph, SW68%10000m1016hPa91%
19-Apr-2024 15:00Broken Clouds20°C0 mph, SE79%10000m1014hPa89%
19-Apr-2024 18:00Broken Clouds19°C2 mph, S76%10000m1014hPa86%
19-Apr-2024 21:00Scattered Clouds20°C2 mph, S48%10000m1015hPa80%
20-Apr-2024 00:00Broken Clouds25°C4 mph, N52%10000m1015hPa64%
20-Apr-2024 03:00Overcast Clouds26°C7 mph, N97%10000m1012hPa68%
20-Apr-2024 06:00Light Rain24°C4 mph, N89%10000m1011hPa85%
20-Apr-2024 09:00Light Rain22°C0 mph, W83%10000m1013hPa92%
20-Apr-2024 12:00Light Rain21°C2 mph, SW90%10000m1015hPa92%
20-Apr-2024 15:00Light Rain21°C2 mph, W99%10000m1014hPa94%